createdAt,value
2022-12-23T00:00:21.701Z,98.34
2022-12-23T00:02:49.760Z,98.36
2022-12-23T00:05:18.074Z,98.40
2022-12-23T00:07:46.246Z,98.44
2022-12-23T00:10:14.259Z,98.41
2022-12-23T00:13:01.256Z,98.39
2022-12-23T00:15:29.244Z,98.38
2022-12-23T00:17:57.533Z,98.41
2022-12-23T00:20:25.533Z,98.42
2022-12-23T00:23:08.435Z,98.41
2022-12-23T00:25:45.026Z,98.36
2022-12-23T00:28:16.554Z,98.41
2022-12-23T00:30:48.489Z,98.48
2022-12-23T00:33:18.120Z,98.50
2022-12-23T00:35:46.841Z,98.47
2022-12-23T00:38:15.172Z,98.43
2022-12-23T00:41:00.976Z,98.43
2022-12-23T00:43:30.374Z,98.44
2022-12-23T00:45:58.462Z,98.42
2022-12-23T00:48:49.336Z,98.47
2022-12-23T00:51:17.343Z,98.43
2022-12-23T00:53:45.340Z,98.41
2022-12-23T00:56:13.342Z,98.38
2022-12-23T00:58:42.702Z,98.39
2022-12-23T01:01:28.596Z,98.41
2022-12-23T01:04:14.298Z,98.37
2022-12-23T01:06:42.334Z,98.37
2022-12-23T01:09:10.424Z,98.35
2022-12-23T01:11:38.554Z,98.35
2022-12-23T01:14:09.311Z,98.38
2022-12-23T01:16:38.079Z,98.36
2022-12-23T01:19:06.593Z,98.33
2022-12-23T01:21:34.788Z,98.35
2022-12-23T01:24:02.828Z,98.37
2022-12-23T01:26:30.823Z,98.39
2022-12-23T01:28:59.505Z,98.47
2022-12-23T01:31:29.315Z,98.44
2022-12-23T01:33:57.540Z,98.51
2022-12-23T01:36:25.628Z,98.51
2022-12-23T01:38:53.746Z,98.55
2022-12-23T01:41:38.641Z,98.59
2022-12-23T01:44:40.061Z,98.63
2022-12-23T01:47:12.023Z,98.61
2022-12-23T01:49:40.266Z,98.64
2022-12-23T01:52:08.411Z,98.55
2022-12-23T01:54:37.148Z,98.52
2022-12-23T01:57:05.289Z,98.51
2022-12-23T01:59:51.036Z,98.53
2022-12-23T02:02:38.945Z,98.58
2022-12-23T02:05:07.426Z,98.57
2022-12-23T02:07:53.676Z,98.66
2022-12-23T02:10:21.914Z,98.67
2022-12-23T02:12:53.373Z,98.70
2022-12-23T02:15:49.390Z,98.74
2022-12-23T02:18:35.139Z,98.72
2022-12-23T02:21:12.387Z,98.77
2022-12-23T02:23:59.284Z,98.74
2022-12-23T02:27:01.339Z,98.75
2022-12-23T02:29:58.113Z,98.78
2022-12-23T02:32:31.075Z,98.81
2022-12-23T02:35:06.080Z,98.86
2022-12-23T02:37:36.712Z,98.84
2022-12-23T02:40:10.016Z,98.90
2022-12-23T02:42:39.834Z,98.94
2022-12-23T02:45:10.881Z,99.01
2022-12-23T02:47:42.283Z,98.98
2022-12-23T02:50:13.084Z,99.04
2022-12-23T02:52:42.851Z,98.99
2022-12-23T02:55:15.668Z,99.06
2022-12-23T02:57:46.810Z,99.10
2022-12-23T03:00:15.995Z,99.09
2022-12-23T03:02:45.667Z,99.14
2022-12-23T03:05:28.457Z,99.13
2022-12-23T03:07:59.475Z,99.12
2022-12-23T03:10:34.591Z,99.15
2022-12-23T03:13:10.148Z,99.18
2022-12-23T03:15:42.561Z,99.19
2022-12-23T03:18:17.866Z,99.18
2022-12-23T03:20:52.276Z,99.19
2022-12-23T03:23:24.555Z,99.18
2022-12-23T03:25:55.203Z,99.23
2022-12-23T03:28:29.541Z,99.22
2022-12-23T03:30:58.780Z,99.23
2022-12-23T03:33:30.900Z,99.27
2022-12-23T03:36:01.731Z,99.27
2022-12-23T03:38:30.814Z,99.26
2022-12-23T03:41:02.808Z,99.29
2022-12-23T03:43:34.524Z,99.31
2022-12-23T03:46:05.962Z,99.33
2022-12-23T03:48:37.450Z,99.38
2022-12-23T03:51:10.879Z,99.30
2022-12-23T03:53:40.457Z,99.31
2022-12-23T03:56:11.376Z,99.33
2022-12-23T03:58:43.619Z,99.38
2022-12-23T04:01:12.404Z,99.39
2022-12-23T04:03:45.973Z,99.38
2022-12-23T04:06:17.079Z,99.39
2022-12-23T04:08:45.690Z,99.39
2022-12-23T04:11:13.856Z,99.44
2022-12-23T04:13:42.314Z,99.42
2022-12-23T04:16:11.197Z,99.42
2022-12-23T04:18:39.314Z,99.47
2022-12-23T04:21:08.705Z,99.47
2022-12-23T04:23:36.951Z,99.47
2022-12-23T04:26:05.374Z,99.52
2022-12-23T04:28:33.355Z,99.55
2022-12-23T04:31:01.442Z,99.55
2022-12-23T04:33:29.544Z,99.59
2022-12-23T04:36:00.229Z,99.61
2022-12-23T04:38:29.656Z,99.61
2022-12-23T04:40:57.694Z,99.65
2022-12-23T04:43:25.759Z,99.65
2022-12-23T04:45:53.861Z,99.62
2022-12-23T04:48:22.039Z,99.65
2022-12-23T04:50:50.096Z,99.65
2022-12-23T04:53:18.646Z,99.65
2022-12-23T04:55:52.375Z,99.67
2022-12-23T04:58:22.256Z,99.69
2022-12-23T05:00:50.483Z,99.66
2022-12-23T05:03:19.047Z,99.71
2022-12-23T05:05:47.243Z,99.71
2022-12-23T05:08:15.345Z,99.75
2022-12-23T05:10:43.376Z,99.74
2022-12-23T05:13:12.833Z,99.79
2022-12-23T05:15:41.295Z,99.77
2022-12-23T05:18:09.458Z,99.76
2022-12-23T05:20:37.655Z,99.77
2022-12-23T05:23:05.710Z,99.77
2022-12-23T05:25:34.249Z,99.79
2022-12-23T05:28:02.300Z,99.77
2022-12-23T05:30:32.081Z,99.75
2022-12-23T05:33:00.431Z,99.77
2022-12-23T05:35:29.266Z,99.76
2022-12-23T05:37:57.654Z,99.79
2022-12-23T05:40:30.445Z,99.79
2022-12-23T05:43:00.578Z,99.77
2022-12-23T05:45:30.892Z,99.75
2022-12-23T05:48:00.265Z,99.78
2022-12-23T05:50:28.380Z,99.78
2022-12-23T05:52:57.756Z,99.80
2022-12-23T05:55:25.769Z,99.79
2022-12-23T05:57:54.845Z,99.80
2022-12-23T06:00:23.097Z,99.75
2022-12-23T06:02:53.749Z,99.84
2022-12-23T06:05:23.883Z,99.83
2022-12-23T06:07:52.153Z,99.80
2022-12-23T06:10:20.400Z,99.81
2022-12-23T06:12:48.383Z,99.84
2022-12-23T06:15:16.780Z,99.81
2022-12-23T06:17:44.847Z,99.85
2022-12-23T06:20:20.045Z,99.87
2022-12-23T06:22:50.212Z,99.85
2022-12-23T06:25:18.362Z,99.87
2022-12-23T06:27:46.637Z,99.83
2022-12-23T06:30:15.224Z,99.84
2022-12-23T06:32:43.240Z,99.82
2022-12-23T06:35:11.333Z,99.90
2022-12-23T06:37:39.467Z,99.89
2022-12-23T06:40:10.386Z,99.89
2022-12-23T06:42:38.614Z,99.87
2022-12-23T06:45:07.566Z,99.88
2022-12-23T06:47:35.613Z,99.93
2022-12-23T06:50:04.795Z,99.90
2022-12-23T06:52:32.817Z,99.94
2022-12-23T06:55:00.867Z,99.88
2022-12-23T06:57:30.665Z,99.86
2022-12-23T06:59:58.832Z,99.86
2022-12-23T07:02:27.106Z,99.88
2022-12-23T07:04:55.355Z,99.86
2022-12-23T07:07:23.561Z,99.87
2022-12-23T07:09:51.678Z,99.77
2022-12-23T07:12:19.849Z,99.77
2022-12-23T07:14:49.268Z,99.76
2022-12-23T07:17:17.851Z,99.76
2022-12-23T07:19:45.890Z,99.78
2022-12-23T07:22:13.955Z,99.76
2022-12-23T07:24:41.953Z,99.74
2022-12-23T07:27:10.849Z,99.76
2022-12-23T07:29:38.833Z,99.72
2022-12-23T07:32:08.319Z,99.73
2022-12-23T07:34:36.481Z,99.73
2022-12-23T07:37:04.656Z,99.72
2022-12-23T07:39:32.675Z,99.73
2022-12-23T07:42:33.905Z,99.75
2022-12-23T07:44:48.850Z,99.75
2022-12-23T07:47:18.215Z,99.74
2022-12-23T07:49:46.202Z,99.77
2022-12-23T07:52:14.191Z,99.77
2022-12-23T07:54:42.251Z,99.80
2022-12-23T07:57:10.455Z,99.83
2022-12-23T07:59:38.415Z,99.81
2022-12-23T08:02:06.787Z,99.80
2022-12-23T08:04:40.984Z,99.83
2022-12-23T08:07:12.384Z,99.84
2022-12-23T08:09:40.637Z,99.81
2022-12-23T08:12:08.757Z,99.83
2022-12-23T08:14:37.104Z,99.86
2022-12-23T08:17:05.301Z,99.90
2022-12-23T08:19:33.501Z,99.92
2022-12-23T08:22:03.222Z,99.90
2022-12-23T08:24:31.388Z,99.91
2022-12-23T08:26:59.614Z,99.90
2022-12-23T08:29:32.540Z,99.92
2022-12-23T08:32:04.065Z,99.93
2022-12-23T08:34:32.085Z,99.94
2022-12-23T08:37:00.126Z,99.93
2022-12-23T08:39:29.853Z,99.87
2022-12-23T08:41:57.923Z,99.91
2022-12-23T08:44:28.079Z,99.90
2022-12-23T08:46:59.302Z,99.92
2022-12-23T08:49:28.613Z,99.88
2022-12-23T08:51:56.673Z,99.90
2022-12-23T08:54:25.456Z,99.91
2022-12-23T08:56:55.221Z,99.98
2022-12-23T08:59:23.200Z,99.95
2022-12-23T09:01:51.756Z,99.95
2022-12-23T09:04:20.105Z,99.92
2022-12-23T09:06:48.162Z,99.93
2022-12-23T09:09:17.219Z,99.92
2022-12-23T09:11:45.280Z,99.89
2022-12-23T09:14:14.978Z,99.93
2022-12-23T09:16:43.096Z,99.84
2022-12-23T09:19:11.126Z,99.85
2022-12-23T09:21:39.268Z,99.86
2022-12-23T09:24:07.685Z,99.87
2022-12-23T09:26:35.742Z,99.85
2022-12-23T09:29:04.135Z,99.82
2022-12-23T09:31:37.417Z,99.81
2022-12-23T09:34:06.564Z,99.77
2022-12-23T09:36:34.892Z,99.77
2022-12-23T09:39:02.927Z,99.76
2022-12-23T09:41:36.430Z,99.80
2022-12-23T09:44:15.999Z,99.77
2022-12-23T09:46:48.961Z,99.74
2022-12-23T09:49:18.694Z,99.78
2022-12-23T09:51:48.027Z,99.73
2022-12-23T09:54:19.128Z,99.71
2022-12-23T09:56:50.562Z,99.73
2022-12-23T09:59:29.059Z,99.74
2022-12-23T10:02:02.016Z,99.80
2022-12-23T10:04:35.125Z,99.81
2022-12-23T10:07:23.556Z,99.81
2022-12-23T10:09:52.698Z,99.84
2022-12-23T10:12:40.234Z,99.81
2022-12-23T10:15:20.727Z,99.82
2022-12-23T10:17:52.064Z,99.87
2022-12-23T10:20:29.168Z,99.87
2022-12-23T10:22:58.407Z,99.86
2022-12-23T10:25:30.222Z,99.90
2022-12-23T10:27:58.310Z,99.97
2022-12-23T10:30:56.856Z,99.98
2022-12-23T10:33:21.160Z,99.99
2022-12-23T10:35:57.845Z,99.99
2022-12-23T10:38:47.197Z,99.99
2022-12-23T10:41:26.521Z,99.99
2022-12-23T10:44:11.133Z,99.99
2022-12-23T10:46:43.613Z,99.99
2022-12-23T10:49:20.512Z,99.97
2022-12-23T10:51:51.051Z,99.93
2022-12-23T10:54:22.397Z,99.80
2022-12-23T10:56:50.756Z,99.72
2022-12-23T10:59:24.585Z,99.70
2022-12-23T11:01:56.054Z,99.63
2022-12-23T11:04:32.088Z,99.58
2022-12-23T11:07:41.594Z,99.51
2022-12-23T11:09:52.141Z,99.52
2022-12-23T11:12:23.266Z,99.54
2022-12-23T11:14:53.235Z,99.51
2022-12-23T11:17:23.075Z,99.49
2022-12-23T11:20:09.091Z,99.44
2022-12-23T11:22:38.364Z,99.46
2022-12-23T11:25:26.775Z,99.40
2022-12-23T11:27:57.874Z,99.38
2022-12-23T11:30:26.344Z,99.41
2022-12-23T11:32:54.517Z,99.40
2022-12-23T11:35:28.764Z,99.38
2022-12-23T11:37:57.729Z,99.33
2022-12-23T11:40:28.039Z,99.36
2022-12-23T11:42:59.011Z,99.34
2022-12-23T11:45:28.672Z,99.32
2022-12-23T11:47:57.207Z,99.33
2022-12-23T11:50:35.594Z,99.34
2022-12-23T11:53:14.851Z,99.32
2022-12-23T11:55:48.244Z,99.35
2022-12-23T11:58:20.384Z,99.38
2022-12-23T12:00:56.445Z,99.38
2022-12-23T12:03:28.441Z,99.36
2022-12-23T12:06:00.594Z,99.37
2022-12-23T12:08:32.854Z,99.39
2022-12-23T12:11:03.918Z,99.43
2022-12-23T12:13:34.216Z,99.46
2022-12-23T12:16:11.656Z,99.54
2022-12-23T12:18:41.109Z,99.57
2022-12-23T12:21:15.003Z,99.56
2022-12-23T12:23:45.464Z,99.57
2022-12-23T12:26:17.033Z,99.54
2022-12-23T12:28:47.156Z,99.54
2022-12-23T12:31:19.728Z,99.53
2022-12-23T12:33:50.655Z,99.51
2022-12-23T12:36:29.624Z,99.50
2022-12-23T12:38:58.985Z,99.44
2022-12-23T12:41:31.827Z,99.41
2022-12-23T12:44:14.086Z,99.37
2022-12-23T12:46:44.919Z,99.28
2022-12-23T12:49:16.550Z,99.24
2022-12-23T12:51:50.303Z,99.19
2022-12-23T12:54:24.686Z,99.17
2022-12-23T12:56:54.688Z,99.13
2022-12-23T12:59:24.706Z,99.10
2022-12-23T13:02:05.207Z,99.09
2022-12-23T13:04:47.884Z,98.99
2022-12-23T13:07:18.750Z,98.96
2022-12-23T13:09:55.192Z,98.95
2022-12-23T13:12:27.239Z,98.97
2022-12-23T13:15:01.331Z,99.03
2022-12-23T13:17:33.556Z,99.04
2022-12-23T13:20:09.866Z,99.05
2022-12-23T13:22:39.926Z,99.05
2022-12-23T13:25:13.961Z,98.98
2022-12-23T13:27:45.997Z,98.87
2022-12-23T13:30:15.137Z,98.86
2022-12-23T13:33:01.855Z,98.88
2022-12-23T13:35:48.365Z,98.89
2022-12-23T13:38:29.954Z,98.87
2022-12-23T13:41:05.841Z,98.83
2022-12-23T13:43:41.573Z,98.80
2022-12-23T13:46:15.657Z,98.80
2022-12-23T13:48:49.417Z,98.77
2022-12-23T13:51:21.775Z,98.77
2022-12-23T13:54:02.427Z,98.78
2022-12-23T13:56:40.919Z,98.80
2022-12-23T13:59:10.822Z,98.75
2022-12-23T14:01:45.995Z,98.68
2022-12-23T14:04:32.146Z,98.68
2022-12-23T14:07:01.755Z,98.65
2022-12-23T14:09:33.603Z,98.70
2022-12-23T14:12:20.254Z,98.66
2022-12-23T14:15:13.463Z,98.60
2022-12-23T14:17:48.310Z,98.58
2022-12-23T14:20:26.315Z,98.54
2022-12-23T14:23:01.958Z,98.54
2022-12-23T14:25:38.471Z,98.57
2022-12-23T14:28:14.555Z,98.62
2022-12-23T14:30:45.735Z,98.62
2022-12-23T14:33:23.470Z,98.59
2022-12-23T14:35:57.199Z,98.59
2022-12-23T14:38:35.299Z,98.61
2022-12-23T14:41:38.291Z,98.54
2022-12-23T14:44:20.026Z,98.51
2022-12-23T14:46:57.503Z,98.47
2022-12-23T14:49:41.235Z,98.41
2022-12-23T14:52:44.391Z,98.39
2022-12-23T14:55:41.913Z,98.38
2022-12-23T14:58:40.717Z,98.41
2022-12-23T15:01:13.606Z,98.44
2022-12-23T15:03:44.751Z,98.45
2022-12-23T15:06:17.343Z,98.42
2022-12-23T15:08:47.796Z,98.44
2022-12-23T15:11:24.164Z,98.42
2022-12-23T15:13:55.121Z,98.40
2022-12-23T15:16:30.680Z,98.38
2022-12-23T15:19:02.122Z,98.36
2022-12-23T15:21:32.913Z,98.33
2022-12-23T15:24:01.336Z,98.34
2022-12-23T15:26:31.805Z,98.32
2022-12-23T15:29:01.717Z,98.30
2022-12-23T15:31:32.853Z,98.30
2022-12-23T15:34:03.990Z,98.24
2022-12-23T15:36:36.479Z,98.13
2022-12-23T15:39:09.866Z,98.16
2022-12-23T15:41:42.808Z,98.18
2022-12-23T15:44:15.313Z,98.19
2022-12-23T15:46:43.477Z,98.20
2022-12-23T15:49:12.322Z,98.21
2022-12-23T15:54:36.760Z,98.26
2022-12-23T15:57:05.824Z,98.30
2022-12-23T15:59:37.475Z,98.39
2022-12-23T16:02:49.817Z,98.40
2022-12-23T16:05:06.357Z,98.46
2022-12-23T16:07:36.504Z,98.48
2022-12-23T16:10:13.374Z,98.53
2022-12-23T16:12:42.481Z,98.49
2022-12-23T16:15:28.337Z,98.51
2022-12-23T16:18:14.297Z,98.50
2022-12-23T16:20:44.132Z,98.51
2022-12-23T16:23:13.118Z,98.51
2022-12-23T16:25:46.859Z,98.53
2022-12-23T16:28:23.061Z,98.55
2022-12-23T16:30:53.803Z,98.59
2022-12-23T16:33:36.491Z,98.61
2022-12-23T16:36:18.928Z,98.57
2022-12-23T16:38:47.062Z,98.61
2022-12-23T16:41:15.463Z,98.58
2022-12-23T16:43:51.617Z,98.63
2022-12-23T16:46:23.723Z,98.59
2022-12-23T16:48:53.556Z,98.60
2022-12-23T16:51:24.536Z,98.61
2022-12-23T16:53:55.039Z,98.62
2022-12-23T16:56:25.200Z,98.60
2022-12-23T16:58:53.217Z,98.64
2022-12-23T17:01:24.209Z,98.64
2022-12-23T17:03:52.636Z,98.60
2022-12-23T17:06:21.351Z,98.61
2022-12-23T17:08:49.934Z,98.61
2022-12-23T17:11:19.678Z,98.62
2022-12-23T17:13:48.134Z,98.62
2022-12-23T17:16:19.875Z,98.59
2022-12-23T17:18:49.727Z,98.60
2022-12-23T17:21:21.453Z,98.60
2022-12-23T17:23:49.607Z,98.61
2022-12-23T17:26:17.808Z,98.60
2022-12-23T17:28:45.841Z,98.60
2022-12-23T17:31:16.304Z,98.59
2022-12-23T17:33:48.673Z,98.68
2022-12-23T17:36:17.625Z,98.68
2022-12-23T17:38:45.654Z,98.66
2022-12-23T17:41:17.601Z,98.64
2022-12-23T17:43:45.925Z,98.68
2022-12-23T17:46:14.382Z,98.66
2022-12-23T17:48:42.652Z,98.66
2022-12-23T17:51:14.838Z,98.68
2022-12-23T17:53:43.003Z,98.68
2022-12-23T17:56:13.701Z,98.70
2022-12-23T17:58:41.855Z,98.71
2022-12-23T18:01:17.562Z,98.70
2022-12-23T18:03:45.786Z,98.72
2022-12-23T18:06:17.062Z,98.72
2022-12-23T18:08:45.244Z,98.71
2022-12-23T18:11:18.345Z,98.75
2022-12-23T18:13:46.679Z,98.74
2022-12-23T18:16:14.688Z,98.73
2022-12-23T18:18:46.691Z,98.73
2022-12-23T18:21:21.652Z,98.71
2022-12-23T18:23:49.716Z,98.72
2022-12-23T18:26:17.963Z,98.70
2022-12-23T18:28:46.169Z,98.77
2022-12-23T18:31:16.123Z,98.77
2022-12-23T18:33:44.392Z,98.75
2022-12-23T18:36:22.851Z,98.84
2022-12-23T18:38:52.093Z,98.80
2022-12-23T18:41:20.381Z,98.84
2022-12-23T18:43:48.666Z,98.88
2022-12-23T18:46:16.972Z,98.82
2022-12-23T18:48:45.026Z,98.87
2022-12-23T18:51:15.428Z,98.88
2022-12-23T18:53:45.007Z,98.91
2022-12-23T18:56:27.933Z,98.89
2022-12-23T18:58:57.339Z,98.92
2022-12-23T19:01:25.471Z,98.93
2022-12-23T19:03:53.527Z,98.92
2022-12-23T19:06:21.496Z,99.00
2022-12-23T19:08:51.054Z,98.95
2022-12-23T19:11:21.237Z,98.97
2022-12-23T19:13:49.347Z,98.98
2022-12-23T19:16:19.133Z,99.00
2022-12-23T19:18:48.465Z,99.01
2022-12-23T19:21:17.426Z,99.04
2022-12-23T19:23:45.740Z,99.04
2022-12-23T19:26:15.913Z,99.08
2022-12-23T19:28:43.945Z,99.10
2022-12-23T19:31:13.213Z,99.11
2022-12-23T19:33:42.452Z,99.10
2022-12-23T19:36:11.386Z,99.12
2022-12-23T19:38:39.567Z,99.12
2022-12-23T19:41:08.193Z,99.12
2022-12-23T19:43:38.721Z,99.14
2022-12-23T19:46:08.861Z,99.14
2022-12-23T19:48:37.303Z,99.14
2022-12-23T19:51:07.648Z,99.16
2022-12-23T19:53:36.379Z,99.15
2022-12-23T19:56:06.771Z,99.18
2022-12-23T19:58:38.160Z,99.19
2022-12-23T20:01:10.646Z,99.22
2022-12-23T20:03:39.228Z,99.25
2022-12-23T20:06:08.888Z,99.25
2022-12-23T20:08:37.031Z,99.29
2022-12-23T20:11:09.838Z,99.31
2022-12-23T20:13:39.570Z,99.32
2022-12-23T20:16:08.429Z,99.32
2022-12-23T20:18:37.148Z,99.32
2022-12-23T20:21:07.001Z,99.31
2022-12-23T20:23:35.805Z,99.34
2022-12-23T20:26:04.859Z,99.38
2022-12-23T20:28:33.440Z,99.33
2022-12-23T20:31:08.128Z,99.36
2022-12-23T20:33:36.203Z,99.38
2022-12-23T20:36:04.650Z,99.36
2022-12-23T20:38:35.040Z,99.38
2022-12-23T20:41:03.825Z,99.37
2022-12-23T20:43:31.979Z,99.39
2022-12-23T20:46:00.055Z,99.42
2022-12-23T20:48:34.053Z,99.45
2022-12-23T20:51:05.599Z,99.43
2022-12-23T20:53:33.879Z,99.44
2022-12-23T20:56:02.358Z,99.44
2022-12-23T20:58:48.152Z,99.42
2022-12-23T21:01:16.217Z,99.44
2022-12-23T21:03:45.604Z,99.47
2022-12-23T21:06:13.579Z,99.47
2022-12-23T21:08:43.013Z,99.49
2022-12-23T21:11:11.607Z,99.52
2022-12-23T21:13:41.230Z,99.48
2022-12-23T21:16:11.843Z,99.51
2022-12-23T21:18:44.022Z,99.51
2022-12-23T21:21:13.691Z,99.52
2022-12-23T21:23:42.740Z,99.51
2022-12-23T21:26:13.656Z,99.52
2022-12-23T21:28:42.891Z,99.58
2022-12-23T21:31:11.168Z,99.54
2022-12-23T21:33:40.896Z,99.55
2022-12-23T21:36:11.768Z,99.54
2022-12-23T21:38:45.558Z,99.57
2022-12-23T21:41:17.530Z,99.57
2022-12-23T21:43:45.652Z,99.54
2022-12-23T21:46:16.154Z,99.60
2022-12-23T21:48:44.711Z,99.58
2022-12-23T21:51:14.599Z,99.60
2022-12-23T21:53:48.488Z,99.62
2022-12-23T21:56:17.790Z,99.62
2022-12-23T21:58:46.692Z,99.65
2022-12-23T22:01:16.347Z,99.63
2022-12-23T22:03:45.492Z,99.63
2022-12-23T22:06:15.216Z,99.66
2022-12-23T22:08:44.641Z,99.65
2022-12-23T22:11:14.436Z,99.67
2022-12-23T22:13:43.274Z,99.64
2022-12-23T22:16:12.314Z,99.63
2022-12-23T22:18:41.104Z,99.67
2022-12-23T22:21:10.993Z,99.66
2022-12-23T22:23:39.310Z,99.67
2022-12-23T22:26:09.807Z,99.67
2022-12-23T22:28:38.694Z,99.66
2022-12-23T22:31:08.629Z,99.67
2022-12-23T22:33:36.759Z,99.69
2022-12-23T22:36:05.261Z,99.68
2022-12-23T22:38:33.406Z,99.68
2022-12-23T22:41:01.470Z,99.66
2022-12-23T22:43:30.810Z,99.65
2022-12-23T22:46:00.341Z,99.65
2022-12-23T22:48:29.715Z,99.65
2022-12-23T22:51:03.015Z,99.65
2022-12-23T22:53:31.863Z,99.69
2022-12-23T22:56:00.248Z,99.64
2022-12-23T22:58:29.473Z,99.67
2022-12-23T23:00:59.079Z,99.67
2022-12-23T23:03:27.764Z,99.68
2022-12-23T23:06:00.135Z,99.69
2022-12-23T23:08:29.336Z,99.67
2022-12-23T23:10:58.234Z,99.66
2022-12-23T23:13:26.871Z,99.65
2022-12-23T23:15:57.200Z,99.63
2022-12-23T23:18:27.031Z,99.67
2022-12-23T23:20:55.235Z,99.64
2022-12-23T23:23:23.507Z,99.66
2022-12-23T23:25:51.728Z,99.64
2022-12-23T23:28:19.919Z,99.63
2022-12-23T23:30:48.473Z,99.68
2022-12-23T23:33:17.238Z,99.64
2022-12-23T23:35:46.686Z,99.68
2022-12-23T23:38:15.900Z,99.66
2022-12-23T23:40:43.947Z,99.67
2022-12-23T23:43:11.994Z,99.65
2022-12-23T23:45:40.575Z,99.65
2022-12-23T23:48:09.660Z,99.62
2022-12-23T23:50:37.818Z,99.66
2022-12-23T23:53:07.440Z,99.62
2022-12-23T23:55:35.441Z,99.65
2022-12-23T23:58:03.480Z,99.62
